Time;durP1;ratioP1;P1;durP2;ratioP2;P2;SDS_P1;SDS_P2;PMS_P1;PMS_P2;Temp;Humidity;BMP_temperature;BMP_pressure;BME280_temperature;BME280_humidity;BME280_pressure;Samples;Min_cycle;Max_cycle;Signal;HPM_P1;HPM_P2
2024/01/30 00:01:27;;;;;;;16.25;8.77;;;;;;;-1.58;100.00;99799.69;6107487;19;20034;-72
2024/01/30 00:03:28;;;;;;;16.30;9.20;;;;;;;-1.58;100.00;99788.81;6108629;19;20003;-72
2024/01/30 00:05:28;;;;;;;15.13;8.65;;;;;;;-1.55;100.00;99798.34;6107767;19;20002;-72
2024/01/30 00:07:28;;;;;;;13.23;8.20;;;;;;;-1.55;100.00;99796.44;6107100;19;20026;-72
2024/01/30 00:09:29;;;;;;;13.90;9.00;;;;;;;-1.56;100.00;99799.44;6107768;19;20002;-72
2024/01/30 00:11:29;;;;;;;14.13;8.68;;;;;;;-1.56;100.00;99797.53;6107946;19;20013;-72
2024/01/30 00:13:29;;;;;;;14.13;8.95;;;;;;;-1.59;100.00;99795.34;6105753;19;20002;-72
2024/01/30 00:15:30;;;;;;;13.05;9.10;;;;;;;-1.56;100.00;99799.44;6107477;19;20020;-71
2024/01/30 00:17:30;;;;;;;14.48;7.95;;;;;;;-1.57;100.00;99800.50;6105093;19;20357;-71
2024/01/30 00:19:31;;;;;;;13.95;8.68;;;;;;;-1.55;100.00;99784.78;6107019;19;20003;-71
2024/01/30 00:21:32;;;;;;;15.40;9.27;;;;;;;-1.60;100.00;99795.59;6107542;19;20494;-72
2024/01/30 00:23:32;;;;;;;15.35;8.77;;;;;;;-1.59;100.00;99797.22;6108080;19;20006;-72
2024/01/30 00:25:33;;;;;;;17.75;8.57;;;;;;;-1.63;100.00;99793.44;6107653;19;20006;-72
2024/01/30 00:27:33;;;;;;;14.55;8.82;;;;;;;-1.63;100.00;99807.00;6106237;19;20007;-72
2024/01/30 00:29:34;;;;;;;15.35;8.57;;;;;;;-1.66;100.00;99796.66;6106006;19;20030;-72
2024/01/30 00:31:35;;;;;;;16.13;8.23;;;;;;;-1.64;100.00;99789.09;6106901;19;20014;-72
2024/01/30 00:33:35;;;;;;;12.30;8.07;;;;;;;-1.64;100.00;99792.63;6104433;19;20028;-72
2024/01/30 00:35:36;;;;;;;17.20;9.20;;;;;;;-1.63;100.00;99793.44;6105157;19;20011;-72
2024/01/30 00:37:36;;;;;;;18.42;9.25;;;;;;;-1.60;100.00;99782.84;6105272;19;20026;-72
2024/01/30 00:39:37;;;;;;;14.70;8.77;;;;;;;-1.60;100.00;99782.84;6105087;19;20017;-72
2024/01/30 00:41:37;;;;;;;16.08;8.88;;;;;;;-1.63;100.00;99791.53;6105659;19;20006;-72
2024/01/30 00:43:37;;;;;;;15.48;9.10;;;;;;;-1.65;100.00;99769.28;6105641;19;20491;-72
2024/01/30 00:45:38;;;;;;;14.40;8.77;;;;;;;-1.62;100.00;99776.06;6104711;19;20003;-72
2024/01/30 00:47:38;;;;;;;16.38;9.40;;;;;;;-1.62;100.00;99795.88;6104208;19;20018;-72
2024/01/30 00:49:38;;;;;;;16.30;8.70;;;;;;;-1.59;100.00;99783.66;6105201;19;20487;-72
2024/01/30 00:51:39;;;;;;;12.75;8.00;;;;;;;-1.60;100.00;99774.72;6107450;19;20011;-72
2024/01/30 00:53:39;;;;;;;12.93;8.73;;;;;;;-1.57;100.00;99778.78;6111200;19;20011;-72
2024/01/30 00:55:39;;;;;;;15.13;8.48;;;;;;;-1.60;100.00;99776.59;6110001;19;20654;-72
2024/01/30 00:57:40;;;;;;;14.77;9.00;;;;;;;-1.60;100.00;99765.75;6111832;19;20006;-72
2024/01/30 00:59:40;;;;;;;15.43;8.55;;;;;;;-1.64;100.00;99756.53;6109694;19;20012;-72
2024/01/30 01:01:40;;;;;;;12.75;8.57;;;;;;;-1.62;100.00;99770.63;6110618;19;20031;-72
2024/01/30 01:03:43;;;;;;;14.13;8.63;;;;;;;-1.61;100.00;99772.25;6111072;19;20010;-72
2024/01/30 01:05:43;;;;;;;12.80;8.07;;;;;;;-1.64;100.00;99767.38;6109283;19;20377;-72
2024/01/30 01:07:45;;;;;;;14.10;8.13;;;;;;;-1.63;100.00;99760.88;6110116;19;20011;-72
2024/01/30 01:09:45;;;;;;;12.82;7.75;;;;;;;-1.60;100.00;99766.56;6110493;19;20036;-72
2024/01/30 01:11:45;;;;;;;12.75;7.95;;;;;;;-1.61;100.00;99758.69;6110244;19;20455;-72
2024/01/30 01:13:46;;;;;;;17.00;8.32;;;;;;;-1.56;100.00;99767.69;6110191;19;19998;-72
2024/01/30 01:15:46;;;;;;;16.80;8.57;;;;;;;-1.55;100.00;99768.50;6109523;19;20017;-72
2024/01/30 01:17:46;;;;;;;17.52;8.50;;;;;;;-1.57;100.00;99760.63;6111263;19;20005;-72
2024/01/30 01:19:47;;;;;;;12.90;7.70;;;;;;;-1.57;100.00;99770.63;6110936;19;20006;-72
2024/01/30 01:21:47;;;;;;;14.45;8.40;;;;;;;-1.59;100.00;99768.19;6111334;19;20013;-72
2024/01/30 01:23:47;;;;;;;13.40;7.53;;;;;;;-1.62;100.00;99767.91;6111014;19;20003;-72
2024/01/30 01:25:47;;;;;;;13.98;7.65;;;;;;;-1.63;100.00;99769.00;6109523;19;20467;-72
2024/01/30 01:27:51;;;;;;;9.45;6.90;;;;;;;-1.67;100.00;99768.72;6111108;19;20026;-72
2024/01/30 01:29:52;;;;;;;12.32;7.47;;;;;;;-1.70;100.00;99767.34;6110715;19;20014;-72
2024/01/30 01:31:52;;;;;;;15.90;8.70;;;;;;;-1.67;100.00;99770.59;6110921;19;20335;-72
2024/01/30 01:33:52;;;;;;;13.15;8.02;;;;;;;-1.65;100.00;99777.44;6111124;19;20018;-72
2024/01/30 01:35:53;;;;;;;17.02;8.57;;;;;;;-1.62;100.00;99771.44;6107992;19;20020;-72
2024/01/30 01:37:59;;;;;;;12.85;7.65;;;;;;;-1.63;100.00;99760.88;6111829;19;20589;-72
2024/01/30 01:40:00;;;;;;;16.20;8.25;;;;;;;-1.60;100.00;99761.13;6110646;19;20011;-72
2024/01/30 01:42:00;;;;;;;16.58;8.55;;;;;;;-1.60;100.00;99760.31;6110612;19;20007;-72
2024/01/30 01:44:01;;;;;;;13.30;7.82;;;;;;;-1.61;100.00;99758.69;6109062;19;20006;-72
2024/01/30 01:46:01;;;;;;;16.23;9.00;;;;;;;-1.64;100.00;99757.34;6109528;19;20494;-72
2024/01/30 01:48:02;;;;;;;15.90;8.75;;;;;;;-1.68;100.00;99758.13;6108097;19;20390;-72
2024/01/30 01:50:03;;;;;;;15.50;8.70;;;;;;;-1.69;100.00;99754.59;6109940;19;20391;-72
2024/01/30 01:52:04;;;;;;;15.40;9.05;;;;;;;-1.74;100.00;99768.97;6110123;19;20736;-72
2024/01/30 01:54:08;;;;;;;17.85;9.73;;;;;;;-1.75;100.00;99772.75;6109899;19;19999;-72
2024/01/30 01:56:08;;;;;;;16.75;8.48;;;;;;;-1.79;100.00;99763.53;6109799;19;20010;-71
2024/01/30 01:58:10;;;;;;;18.25;10.13;;;;;;;-1.82;100.00;99764.06;6110355;19;19999;-71
2024/01/30 02:00:12;;;;;;;16.90;10.43;;;;;;;-1.88;100.00;99770.53;6108924;19;20246;-72
2024/01/30 02:02:15;;;;;;;;;;;;;;;-1.86;100.00;99770.28;6110736;19;19999;-72
2024/01/30 02:04:16;;;;;;;18.23;10.63;;;;;;;-1.84;100.00;99773.53;6109769;19;19975;-72
2024/01/30 02:06:17;;;;;;;17.52;9.68;;;;;;;-1.86;100.00;99768.38;6108765;19;20478;-72
2024/01/30 02:08:17;;;;;;;17.17;8.90;;;;;;;-1.89;100.00;99763.50;6108856;19;20017;-72
2024/01/30 02:10:18;;;;;;;16.20;9.50;;;;;;;-1.88;100.00;99758.88;6110010;19;20462;-71
2024/01/30 02:12:18;;;;;;;17.42;9.35;;;;;;;-1.85;100.00;99761.88;6108801;19;20003;-71
2024/01/30 02:14:18;;;;;;;18.00;9.02;;;;;;;-1.87;100.00;99757.78;6109395;19;20028;-71
2024/01/30 02:16:19;;;;;;;18.83;8.98;;;;;;;-1.87;100.00;99755.09;6109620;19;20683;-71
2024/01/30 02:18:21;;;;;;;13.27;8.35;;;;;;;-1.88;100.00;99769.72;6109359;19;20360;-71
2024/01/30 02:20:24;;;;;;;17.70;9.00;;;;;;;-1.88;100.00;99756.16;6108697;19;20358;-71
2024/01/30 02:22:25;;;;;;;15.77;8.02;;;;;;;-1.90;100.00;99747.44;6109328;19;20017;-72
2024/01/30 02:24:25;;;;;;;15.32;8.43;;;;;;;-1.87;100.00;99760.50;6109230;19;20011;-72
2024/01/30 02:26:25;;;;;;;14.65;7.65;;;;;;;-1.89;100.00;99749.94;6107481;19;20015;-72
2024/01/30 02:28:27;;;;;;;11.75;7.78;;;;;;;-1.89;100.00;99749.94;6108327;19;20010;-72
2024/01/30 02:30:27;;;;;;;14.02;8.32;;;;;;;-1.90;100.00;99745.59;6109597;19;20457;-72
2024/01/30 02:32:27;;;;;;;15.65;8.55;;;;;;;-1.91;100.00;99743.13;6108892;19;20013;-72
2024/01/30 02:34:28;;;;;;;12.73;7.60;;;;;;;-1.96;100.00;99743.94;6109451;19;20010;-72
2024/01/30 02:36:28;;;;;;;13.77;8.05;;;;;;;-1.98;100.00;99746.09;6107913;19;20006;-72
2024/01/30 02:38:28;;;;;;;15.02;8.25;;;;;;;-2.03;100.00;99746.06;6110090;19;20074;-72
2024/01/30 02:40:29;;;;;;;14.30;8.15;;;;;;;-2.03;100.00;99746.06;6107384;19;20015;-72
2024/01/30 02:42:29;;;;;;;12.60;7.00;;;;;;;-2.02;100.00;99745.78;6109286;19;20986;-72
2024/01/30 02:44:29;;;;;;;13.25;8.00;;;;;;;-2.06;100.00;99736.56;6109187;19;20474;-72
2024/01/30 02:46:29;;;;;;;13.48;7.85;;;;;;;-2.05;100.00;99738.19;6106536;19;20024;-72
2024/01/30 02:48:30;;;;;;;13.18;8.05;;;;;;;-2.06;100.00;99733.84;6100018;19;20002;-72
2024/01/30 02:50:30;;;;;;;14.63;7.43;;;;;;;-2.07;100.00;99734.09;6108941;19;20477;-72
2024/01/30 02:52:30;;;;;;;11.85;7.10;;;;;;;-2.09;100.00;99728.13;6109290;19;20031;-72
2024/01/30 02:54:31;;;;;;;13.02;7.15;;;;;;;-2.11;100.00;99724.88;6108663;19;20002;-72
2024/01/30 02:56:31;;;;;;;12.07;7.00;;;;;;;-2.13;100.00;99724.31;6107420;19;20007;-72
2024/01/30 02:58:31;;;;;;;12.57;7.32;;;;;;;-2.17;100.00;99724.03;6108335;19;20360;-72
2024/01/30 03:00:32;;;;;;;12.48;7.35;;;;;;;-2.20;100.00;99723.75;6108917;19;20577;-72
2024/01/30 03:02:32;;;;;;;11.75;6.85;;;;;;;-2.23;100.00;99724.25;6108197;19;20003;-72
2024/01/30 03:04:33;;;;;;;11.70;6.80;;;;;;;-2.22;100.00;99720.50;6107737;19;20558;-72
2024/01/30 03:06:33;;;;;;;16.80;7.45;;;;;;;-2.20;100.00;99716.44;6108310;19;20437;-72
2024/01/30 03:08:35;;;;;;;14.73;7.97;;;;;;;-2.18;100.00;99721.59;6107287;19;19999;-71
2024/01/30 03:10:35;;;;;;;11.70;6.80;;;;;;;-2.14;100.00;99717.28;6108113;19;20029;-71
2024/01/30 03:12:35;;;;;;;12.70;6.90;;;;;;;-2.10;100.00;99718.38;6108066;19;20002;-71
2024/01/30 03:14:36;;;;;;;8.77;6.55;;;;;;;-2.16;100.00;99714.00;6105453;19;20397;-71
2024/01/30 03:16:37;;;;;;;12.35;7.05;;;;;;;-2.21;100.00;99714.81;6107072;19;19998;-71
2024/01/30 03:18:38;;;;;;;11.98;7.35;;;;;;;-2.19;100.00;99718.06;6107270;19;20006;-71
2024/01/30 03:20:38;;;;;;;16.98;7.35;;;;;;;-2.22;100.00;99712.34;6107386;19;20029;-71
2024/01/30 03:22:39;;;;;;;13.48;7.55;;;;;;;-2.23;100.00;99719.69;6108334;19;20408;-71
2024/01/30 03:24:39;;;;;;;14.25;7.70;;;;;;;-2.23;100.00;99706.13;6106568;19;20650;-71
2024/01/30 03:26:39;;;;;;;15.93;8.50;;;;;;;-2.24;100.00;99720.72;6106445;19;20384;-71
2024/01/30 03:28:39;;;;;;;13.15;8.00;;;;;;;-2.28;100.00;99717.75;6107889;19;20035;-71
2024/01/30 03:30:40;;;;;;;12.85;7.43;;;;;;;-2.29;100.00;99707.16;6108520;19;20036;-71
2024/01/30 03:32:40;;;;;;;15.70;7.30;;;;;;;-2.29;100.00;99704.47;6107960;19;20019;-71
2024/01/30 03:34:40;;;;;;;13.18;7.50;;;;;;;-2.25;100.00;99710.97;6106795;19;19998;-71
2024/01/30 03:36:41;;;;;;;12.55;6.55;;;;;;;-2.22;100.00;99704.22;6107387;19;20016;-71
2024/01/30 03:38:41;;;;;;;13.10;7.40;;;;;;;-2.18;100.00;99700.69;6106945;19;20003;-71
2024/01/30 03:40:41;;;;;;;11.88;7.35;;;;;;;-2.16;100.00;99693.09;6108163;19;20010;-71
2024/01/30 03:42:42;;;;;;;16.63;7.70;;;;;;;-2.14;100.00;99695.59;6106962;19;20367;-71
2024/01/30 03:44:42;;;;;;;13.98;8.15;;;;;;;-2.18;100.00;99700.69;6108290;19;20010;-71
2024/01/30 03:46:42;;;;;;;12.55;7.00;;;;;;;-2.17;100.00;99696.09;6106117;19;20503;-72
2024/01/30 03:48:43;;;;;;;10.88;6.30;;;;;;;-2.20;100.00;99702.88;6099851;19;20037;-72
2024/01/30 03:50:43;;;;;;;11.82;6.85;;;;;;;-2.22;100.00;99696.91;6101203;19;20112;-72
2024/01/30 03:52:43;;;;;;;18.05;8.45;;;;;;;-2.23;100.00;99707.97;6100517;19;20497;-71
2024/01/30 03:54:44;;;;;;;11.95;7.60;;;;;;;-2.23;100.00;99708.84;6100125;19;19998;-71
2024/01/30 03:56:44;;;;;;;12.40;6.93;;;;;;;-2.26;100.00;99703.91;6100320;19;20370;-71
2024/01/30 03:58:44;;;;;;;13.52;7.47;;;;;;;-2.22;100.00;99699.63;6099796;19;20011;-71
2024/01/30 04:00:45;;;;;;;14.68;7.43;;;;;;;-2.20;100.00;99697.44;6100547;19;20003;-71
2024/01/30 04:02:45;;;;;;;13.63;7.32;;;;;;;-2.13;100.00;99686.38;6098679;19;20009;-71
2024/01/30 04:04:45;;;;;;;15.82;7.15;;;;;;;-2.09;100.00;99680.13;6100344;19;20007;-71
2024/01/30 04:06:46;;;;;;;13.55;6.80;;;;;;;-2.01;100.00;99681.50;6099044;19;20607;-71
2024/01/30 04:08:46;;;;;;;12.95;6.65;;;;;;;-1.98;100.00;99681.00;6099561;19;20010;-71
2024/01/30 04:10:47;;;;;;;11.63;6.18;;;;;;;-1.94;100.00;99676.66;6100438;19;19999;-71
2024/01/30 04:12:47;;;;;;;12.98;6.75;;;;;;;-1.91;100.00;99680.72;6097882;19;20334;-71
2024/01/30 04:14:47;;;;;;;16.80;6.60;;;;;;;-1.87;100.00;99681.84;6099145;19;20003;-71
2024/01/30 04:16:48;;;;;;;13.40;6.55;;;;;;;-1.81;100.00;99697.06;6098670;19;20006;-72
2024/01/30 04:18:48;;;;;;;11.57;6.97;;;;;;;-1.64;100.00;99689.50;6098915;19;20329;-72
2024/01/30 04:20:49;;;;;;;13.50;7.68;;;;;;;-1.73;100.00;99697.34;6098569;19;20451;-72
2024/01/30 04:22:49;;;;;;;14.00;7.60;;;;;;;-1.83;100.00;99693.78;6099984;19;20583;-72
2024/01/30 04:24:49;;;;;;;10.98;7.10;;;;;;;-1.92;100.00;99696.19;6098120;19;20020;-72
2024/01/30 04:26:50;;;;;;;12.18;7.00;;;;;;;-1.98;100.00;99689.94;6100202;19;19999;-72
2024/01/30 04:28:50;;;;;;;14.70;7.43;;;;;;;-2.00;100.00;99694.81;6104012;19;20005;-71
2024/01/30 04:30:50;;;;;;;9.82;6.15;;;;;;;-2.02;100.00;99690.72;6105964;19;20003;-71
2024/01/30 04:32:51;;;;;;;12.10;6.75;;;;;;;-2.02;100.00;99696.16;6104889;19;20005;-71
2024/01/30 04:34:51;;;;;;;14.85;8.23;;;;;;;-2.01;100.00;99692.34;6104241;19;20237;-71
2024/01/30 04:36:51;;;;;;;13.88;7.43;;;;;;;-2.05;100.00;99686.66;6103477;19;20013;-71
2024/01/30 04:38:52;;;;;;;13.88;8.35;;;;;;;-2.05;100.00;99696.69;6104488;19;20376;-71
2024/01/30 04:40:52;;;;;;;17.15;8.23;;;;;;;-2.08;100.00;99689.88;6104380;19;20198;-71
2024/01/30 04:42:52;;;;;;;17.00;8.57;;;;;;;-2.09;100.00;99692.88;6105700;19;20680;-71
2024/01/30 04:44:53;;;;;;;14.43;8.40;;;;;;;-2.08;100.00;99692.59;6104521;19;20468;-71
2024/01/30 04:46:53;;;;;;;11.43;7.25;;;;;;;-2.09;100.00;99688.25;6102861;19;20027;-72
2024/01/30 04:48:53;;;;;;;15.77;8.70;;;;;;;-2.06;100.00;99685.03;6111170;19;19998;-72
2024/01/30 04:50:54;;;;;;;14.25;8.07;;;;;;;-2.06;100.00;99693.16;6110533;19;19999;-72
2024/01/30 04:52:55;;;;;;;14.25;8.38;;;;;;;-2.05;100.00;99681.25;6110716;19;20389;-72
2024/01/30 04:54:55;;;;;;;15.82;8.10;;;;;;;-2.00;100.00;99677.72;6110457;19;20007;-72
2024/01/30 04:56:55;;;;;;;12.27;7.70;;;;;;;-1.96;100.00;99683.44;6109992;19;20011;-72
2024/01/30 04:58:56;;;;;;;15.35;8.13;;;;;;;-1.94;100.00;99678.56;6111106;19;20002;-72
2024/01/30 05:00:56;;;;;;;13.60;7.30;;;;;;;-1.94;100.00;99684.78;6110907;19;20026;-72
2024/01/30 05:02:56;;;;;;;12.45;7.32;;;;;;;-1.89;100.00;99694.84;6111732;19;20062;-72
2024/01/30 05:04:57;;;;;;;14.07;8.18;;;;;;;-1.89;100.00;99692.16;6110738;19;20094;-72
2024/01/30 05:06:58;;;;;;;13.05;8.05;;;;;;;-1.93;100.00;99678.28;6109806;19;20385;-72
2024/01/30 05:08:58;;;;;;;18.73;9.05;;;;;;;-1.94;100.00;99681.28;6111400;19;20039;-72
2024/01/30 05:11:03;;;;;;;16.63;8.13;;;;;;;-1.99;100.00;99684.75;6111300;19;20010;-71
2024/01/30 05:13:03;;;;;;;11.30;7.13;;;;;;;-2.04;100.00;99680.16;6110590;19;20030;-71
2024/01/30 05:15:04;;;;;;;13.18;7.82;;;;;;;-2.08;100.00;99679.03;6110622;19;20093;-71
2024/01/30 05:17:04;;;;;;;14.90;8.73;;;;;;;-2.12;100.00;99677.16;6110620;19;20010;-71
2024/01/30 05:19:05;;;;;;;13.75;8.63;;;;;;;-2.13;100.00;99679.03;6110341;19;20006;-71
2024/01/30 05:21:05;;;;;;;15.18;8.63;;;;;;;-2.11;100.00;99681.47;6108975;19;20024;-71
2024/01/30 05:23:05;;;;;;;14.35;9.02;;;;;;;-2.15;100.00;99680.38;6110356;19;20019;-72
2024/01/30 05:25:06;;;;;;;13.60;8.52;;;;;;;-2.19;100.00;99679.28;6111798;19;20331;-72
2024/01/30 05:27:06;;;;;;;16.52;8.90;;;;;;;-2.14;100.00;99682.84;6108840;19;20013;-72
2024/01/30 05:29:07;;;;;;;14.27;8.23;;;;;;;-2.16;100.00;99678.75;6110068;19;20494;-72
2024/01/30 05:31:08;;;;;;;16.88;9.50;;;;;;;-2.21;100.00;99689.59;6110743;19;20006;-72
2024/01/30 05:33:09;;;;;;;14.77;8.55;;;;;;;-2.22;100.00;99677.13;6110402;19;20546;-72
2024/01/30 05:35:09;;;;;;;13.60;8.15;;;;;;;-2.22;100.00;99683.34;6109003;19;20340;-72
2024/01/30 05:37:14;;;;;;;16.15;8.30;;;;;;;-2.22;100.00;99690.66;6108666;19;20006;-72
2024/01/30 05:39:14;;;;;;;18.98;9.88;;;;;;;-2.20;100.00;99694.72;6109743;19;20013;-72
2024/01/30 05:41:14;;;;;;;17.67;10.40;;;;;;;-2.21;100.00;99687.69;6110111;19;20329;-71
2024/01/30 05:43:15;;;;;;;23.15;11.02;;;;;;;-2.24;100.00;99685.47;6109540;19;20003;-71
2024/01/30 05:45:15;;;;;;;19.23;11.00;;;;;;;-2.26;100.00;99677.63;6108761;19;20017;-72
2024/01/30 05:47:15;;;;;;;18.17;9.73;;;;;;;-2.23;100.00;99675.44;6108972;19;20006;-72
2024/01/30 05:49:16;;;;;;;15.68;9.10;;;;;;;-2.20;100.00;99683.88;6109145;19;20023;-72
2024/01/30 05:51:16;;;;;;;15.02;9.88;;;;;;;-2.17;100.00;99677.94;6108906;19;20019;-71
2024/01/30 05:53:16;;;;;;;13.15;9.10;;;;;;;-2.19;100.00;99682.81;6110215;19;20006;-71
2024/01/30 05:55:17;;;;;;;16.38;10.23;;;;;;;-2.23;100.00;99681.72;6108733;19;20070;-72
2024/01/30 05:57:17;;;;;;;15.45;9.50;;;;;;;-2.27;100.00;99686.84;6108754;19;20234;-72
2024/01/30 05:59:18;;;;;;;16.90;10.18;;;;;;;-2.27;100.00;99686.84;6109165;19;20009;-72
2024/01/30 06:01:18;;;;;;;16.80;9.68;;;;;;;-2.28;100.00;99687.91;6110577;19;20016;-72
2024/01/30 06:03:18;;;;;;;17.85;9.85;;;;;;;-2.29;100.00;99689.00;6109621;19;20073;-71
2024/01/30 06:05:19;;;;;;;15.95;11.02;;;;;;;-2.32;100.00;99683.28;6109904;19;20020;-71
2024/01/30 06:07:19;;;;;;;14.77;9.43;;;;;;;-2.36;100.00;99685.72;6106506;19;20038;-71
2024/01/30 06:09:19;;;;;;;17.50;9.63;;;;;;;-2.38;100.00;99692.50;6109311;19;19998;-71
2024/01/30 06:11:20;;;;;;;15.98;9.70;;;;;;;-2.41;100.00;99682.97;6109477;19;20014;-71
2024/01/30 06:13:20;;;;;;;18.55;10.35;;;;;;;-2.43;100.00;99684.31;6110380;19;20066;-72
2024/01/30 06:15:20;;;;;;;18.27;10.20;;;;;;;-2.43;100.00;99684.31;6107943;19;20735;-72
2024/01/30 06:17:21;;;;;;;15.95;9.95;;;;;;;-2.49;100.00;99679.94;6107453;19;20475;-72
2024/01/30 06:19:21;;;;;;;15.65;10.25;;;;;;;-2.47;100.00;99684.03;6107827;19;20010;-72
2024/01/30 06:21:22;;;;;;;18.38;10.00;;;;;;;-2.51;100.00;99674.78;6109803;19;20044;-72
2024/01/30 06:23:22;;;;;;;15.20;9.43;;;;;;;-2.48;100.00;99678.84;6109781;19;20006;-71
2024/01/30 06:25:22;;;;;;;15.25;9.20;;;;;;;-2.51;100.00;99673.97;6110565;19;20021;-71
2024/01/30 06:27:22;;;;;;;14.60;9.35;;;;;;;-2.51;100.00;99679.41;6106571;19;20014;-71
2024/01/30 06:29:24;;;;;;;15.02;8.80;;;;;;;-2.59;100.00;99670.69;6109072;19;20357;-71
2024/01/30 06:31:25;;;;;;;16.03;9.10;;;;;;;-2.57;100.00;99668.50;6109903;19;20015;-71
2024/01/30 06:33:25;;;;;;;18.88;9.38;;;;;;;-2.56;100.00;99682.91;6109461;19;20023;-71
2024/01/30 06:35:25;;;;;;;15.98;9.13;;;;;;;-2.59;100.00;99669.88;6109563;19;20002;-71
2024/01/30 06:37:25;;;;;;;14.77;9.23;;;;;;;-2.58;100.00;99671.50;6107564;19;20013;-72
2024/01/30 06:39:26;;;;;;;21.25;11.27;;;;;;;-2.56;100.00;99682.91;6110013;19;20085;-72
2024/01/30 06:41:27;;;;;;;16.92;9.98;;;;;;;-2.57;100.00;99670.41;6109928;19;20038;-72
2024/01/30 06:43:27;;;;;;;22.00;11.05;;;;;;;-2.53;100.00;99678.84;6108234;19;20006;-72
2024/01/30 06:45:27;;;;;;;17.88;9.80;;;;;;;-2.54;100.00;99675.31;6108943;19;19998;-72
2024/01/30 06:47:29;;;;;;;16.13;9.15;;;;;;;-2.54;100.00;99683.47;6107757;19;19998;-72
2024/01/30 06:49:29;;;;;;;16.77;9.80;;;;;;;-2.56;100.00;99680.19;6106650;19;19998;-72
2024/01/30 06:51:29;;;;;;;18.63;9.95;;;;;;;-2.55;100.00;99677.22;6109818;19;20017;-72
2024/01/30 06:53:30;;;;;;;18.30;8.98;;;;;;;-2.54;100.00;99669.91;6109266;19;20316;-72
2024/01/30 06:55:30;;;;;;;19.40;10.50;;;;;;;-2.51;100.00;99674.78;6109128;19;20027;-72
2024/01/30 06:57:30;;;;;;;18.95;10.00;;;;;;;-2.56;100.00;99680.19;6108391;19;20379;-72
2024/01/30 06:59:31;;;;;;;16.42;9.63;;;;;;;-2.60;100.00;99679.91;6109729;19;20006;-72
2024/01/30 07:01:32;;;;;;;14.75;9.35;;;;;;;-2.59;100.00;99686.13;6108428;19;20010;-72
2024/01/30 07:03:32;;;;;;;20.17;10.05;;;;;;;-2.60;100.00;99687.22;6108585;19;20028;-72
2024/01/30 07:05:33;;;;;;;13.60;9.40;;;;;;;-2.58;100.00;99679.63;6107712;19;20433;-72
2024/01/30 07:07:33;;;;;;;17.75;9.65;;;;;;;-2.56;100.00;99682.91;6106779;19;20007;-72
2024/01/30 07:09:34;;;;;;;16.48;9.50;;;;;;;-2.54;100.00;99680.75;6108587;19;20010;-72
2024/01/30 07:11:34;;;;;;;18.38;10.05;;;;;;;-2.52;100.00;99685.91;6107253;19;20017;-72
2024/01/30 07:13:34;;;;;;;15.20;8.93;;;;;;;-2.53;100.00;99686.97;6108928;19;20003;-72
2024/01/30 07:15:36;;;;;;;17.02;9.70;;;;;;;-2.46;100.00;99682.97;6109149;19;20517;-72
2024/01/30 07:17:37;;;;;;;15.90;9.33;;;;;;;-2.34;100.00;99682.72;6106755;19;20364;-72
2024/01/30 07:19:37;;;;;;;18.73;9.48;;;;;;;-2.27;100.00;99688.72;6109114;19;20006;-72
2024/01/30 07:21:40;;;;;;;18.52;10.15;;;;;;;-2.14;100.00;99690.97;6108801;19;20015;-72
2024/01/30 07:23:41;;;;;;;18.60;10.07;;;;;;;-2.04;100.00;99684.78;6109100;19;20019;-72
2024/01/30 07:25:42;;;;;;;21.52;9.65;;;;;;;-1.96;100.00;99684.25;6107946;19;20458;-72
2024/01/30 07:27:42;;;;;;;18.63;9.45;;;;;;;-1.93;100.00;99682.91;6108218;19;20006;-72
2024/01/30 07:29:43;;;;;;;17.63;9.18;;;;;;;-1.93;100.00;99683.72;6107603;19;20017;-72
2024/01/30 07:31:43;;;;;;;21.50;9.40;;;;;;;-1.91;100.00;99678.00;6108724;19;20003;-72
2024/01/30 07:33:43;;;;;;;21.00;9.23;;;;;;;-1.94;100.00;99687.50;6108782;19;20423;-72
2024/01/30 07:35:45;;;;;;;25.98;10.55;;;;;;;-1.93;100.00;99691.03;6106385;19;20014;-72
2024/01/30 07:37:46;;;;;;;19.27;9.57;;;;;;;-1.95;100.00;99683.16;6109376;19;20022;-73
2024/01/30 07:39:47;;;;;;;18.08;9.93;;;;;;;-1.93;100.00;99689.13;6107523;19;20011;-73
2024/01/30 07:41:47;;;;;;;25.50;12.90;;;;;;;-1.94;100.00;99687.50;6108528;19;20018;-72
2024/01/30 07:43:47;;;;;;;24.38;11.70;;;;;;;-1.94;100.00;99690.22;6108786;19;20078;-72
2024/01/30 07:45:48;;;;;;;21.40;11.82;;;;;;;-1.92;100.00;99684.53;6106360;19;20086;-72
2024/01/30 07:47:49;;;;;;;22.00;11.73;;;;;;;-1.91;100.00;99686.16;6099783;19;20705;-72
2024/01/30 07:49:49;;;;;;;23.38;10.75;;;;;;;-1.87;100.00;99695.41;6107993;19;20030;-72
2024/01/30 07:51:50;;;;;;;20.05;12.02;;;;;;;-1.88;100.00;99688.34;6107536;19;20007;-72
2024/01/30 07:53:50;;;;;;;18.95;11.05;;;;;;;-1.83;100.00;99693.78;6108333;19;20006;-72
2024/01/30 07:55:50;;;;;;;17.77;10.35;;;;;;;-1.81;100.00;99692.44;6106723;19;20021;-72
2024/01/30 07:57:52;;;;;;;19.27;10.95;;;;;;;-1.80;100.00;99685.94;6107486;19;21046;-72
2024/01/30 07:59:52;;;;;;;17.50;10.85;;;;;;;-1.73;100.00;99685.69;6107150;19;20006;-72
2024/01/30 08:01:53;;;;;;;28.67;13.18;;;;;;;-1.72;100.00;99688.13;6112786;19;20002;-72
2024/01/30 08:03:53;;;;;;;28.63;13.10;;;;;;;-1.70;100.00;99688.66;6112611;19;20002;-71
2024/01/30 08:05:53;;;;;;;27.42;13.95;;;;;;;-1.67;100.00;99692.72;6110486;19;20375;-72
2024/01/30 08:07:53;;;;;;;28.58;14.75;;;;;;;-1.63;100.00;99682.97;6112764;19;20854;-72
2024/01/30 08:09:54;;;;;;;32.17;15.60;;;;;;;-1.54;100.00;99694.13;6112854;19;20289;-72
2024/01/30 08:11:54;;;;;;;24.33;13.60;;;;;;;-1.53;100.00;99690.31;6112973;19;20029;-72
2024/01/30 08:13:55;;;;;;;22.98;13.77;;;;;;;-1.52;100.00;99681.91;6112693;19;20538;-72
2024/01/30 08:15:55;;;;;;;29.50;14.73;;;;;;;-1.49;100.00;99678.66;6111072;19;20018;-72
2024/01/30 08:17:57;;;;;;;24.42;13.65;;;;;;;-1.46;100.00;99680.03;6113287;19;20006;-72
2024/01/30 08:19:58;;;;;;;30.65;17.35;;;;;;;-1.43;100.00;99684.91;6112106;19;20742;-72
2024/01/30 08:21:58;;;;;;;25.70;14.30;;;;;;;-1.39;100.00;99680.56;6112788;19;20009;-72
2024/01/30 08:23:58;;;;;;;29.50;14.98;;;;;;;-1.35;100.00;99678.13;6112511;19;20017;-72
2024/01/30 08:25:59;;;;;;;22.02;12.75;;;;;;;-1.31;100.00;99688.19;6111222;19;20010;-72
2024/01/30 08:28:00;;;;;;;28.90;13.77;;;;;;;-1.26;100.00;99688.16;6112956;19;20451;-72
2024/01/30 08:30:00;;;;;;;21.35;13.35;;;;;;;-1.17;100.00;99683.00;6111689;19;20011;-72
2024/01/30 08:32:00;;;;;;;22.85;13.73;;;;;;;-1.15;100.00;99687.09;6112158;19;20006;-72
2024/01/30 08:34:00;;;;;;;25.63;13.20;;;;;;;-1.06;100.00;99681.94;6111802;19;20002;-72
2024/01/30 08:36:01;;;;;;;33.97;19.45;;;;;;;-1.02;100.00;99685.72;6111394;19;20364;-72
2024/01/30 08:38:01;;;;;;;29.13;14.75;;;;;;;-0.94;100.00;99684.38;6112032;19;20006;-72
2024/01/30 08:40:03;;;;;;;34.33;19.27;;;;;;;-0.94;100.00;99685.19;6111194;19;20010;-72
2024/01/30 08:42:04;;;;;;;31.88;17.02;;;;;;;-0.90;100.00;99688.19;6112345;19;20305;-72
2024/01/30 08:44:04;;;;;;;29.23;16.65;;;;;;;-0.87;100.00;99682.19;6111198;19;20022;-72
2024/01/30 08:46:04;;;;;;;27.08;14.50;;;;;;;-0.81;100.00;99681.09;6111029;19;20332;-72
2024/01/30 08:48:05;;;;;;;26.00;14.65;;;;;;;-0.76;100.00;99683.78;6106997;19;20010;-72
2024/01/30 08:50:06;;;;;;;26.85;13.88;;;;;;;-0.71;100.00;99674.84;6104462;19;20332;-72
2024/01/30 08:52:06;;;;;;;14.15;9.35;;;;;;;-0.62;100.00;99668.56;6104848;19;20271;-72
2024/01/30 08:54:07;;;;;;;19.58;11.82;;;;;;;-0.54;100.00;99678.06;6105361;19;19995;-72
2024/01/30 08:56:07;;;;;;;22.40;10.73;;;;;;;-0.54;100.00;99667.19;6104195;19;20943;-72
2024/01/30 08:58:08;;;;;;;16.75;10.70;;;;;;;-0.52;100.00;99675.06;6104011;19;20263;-72
2024/01/30 09:00:09;;;;;;;16.80;9.88;;;;;;;-0.48;100.00;99668.81;6103401;19;19998;-72
2024/01/30 09:02:12;;;;;;;14.13;8.73;;;;;;;-0.41;100.00;99661.16;6104798;19;20625;-72
2024/01/30 09:04:12;;;;;;;15.23;9.75;;;;;;;-0.39;100.00;99669.06;6105222;19;20240;-72
2024/01/30 09:06:13;;;;;;;15.45;9.77;;;;;;;-0.38;100.00;99666.03;6103537;19;20576;-72
2024/01/30 09:08:13;;;;;;;13.20;8.85;;;;;;;-0.36;100.00;99666.56;6104029;19;20078;-72
2024/01/30 09:10:13;;;;;;;15.52;8.43;;;;;;;-0.31;100.00;99663.03;6104102;19;19995;-72
2024/01/30 09:12:14;;;;;;;25.60;9.80;;;;;;;-0.30;100.00;99665.47;6102407;19;20005;-72
2024/01/30 09:14:14;;;;;;;16.55;8.63;;;;;;;-0.23;100.00;99667.09;6103512;19;20058;-72